Time;durP1;ratioP1;P1;durP2;ratioP2;P2;SDS_P1;SDS_P2;PMS_P1;PMS_P2;Temp;Humidity;BMP_temperature;BMP_pressure;BME280_temperature;BME280_humidity;BME280_pressure;Samples;Min_cycle;Max_cycle;Signal;HPM_P1;HPM_P2
2023/11/30 00:02:03;;;;;;;12.40;7.00;;;8.00;55.80;;;;;;5046091;28;20185;-47
2023/11/30 00:04:28;;;;;;;8.80;7.17;;;7.90;55.80;;;;;;5047983;28;20186;-49
2023/11/30 00:06:54;;;;;;;10.50;7.07;;;7.90;56.00;;;;;;5045987;28;20214;-49
2023/11/30 00:09:19;;;;;;;11.03;7.47;;;7.80;56.10;;;;;;5045990;28;20429;-49
2023/11/30 00:11:45;;;;;;;11.67;8.40;;;7.70;56.30;;;;;;5046330;28;20270;-49
2023/11/30 00:14:11;;;;;;;10.93;7.03;;;7.60;56.60;;;;;;5048601;28;20267;-48
2023/11/30 00:16:36;;;;;;;9.63;7.80;;;7.70;56.60;;;;;;5046712;28;20184;-50
2023/11/30 00:19:02;;;;;;;11.73;7.93;;;7.70;56.50;;;;;;5047246;28;20324;-48
2023/11/30 00:21:28;;;;;;;9.20;7.50;;;7.80;56.40;;;;;;5047961;28;21563;-49
2023/11/30 00:23:53;;;;;;;11.30;7.80;;;7.70;56.20;;;;;;5047768;28;20174;-46
2023/11/30 00:26:19;;;;;;;12.03;7.73;;;7.60;56.80;;;;;;5052154;28;20741;-49
2023/11/30 00:28:44;;;;;;;11.23;7.60;;;7.40;57.00;;;;;;5048297;28;20212;-49
2023/11/30 00:31:10;;;;;;;9.60;8.23;;;7.40;58.10;;;;;;5050652;28;20184;-48
2023/11/30 00:33:36;;;;;;;9.87;7.10;;;7.30;57.60;;;;;;5050641;28;20169;-50
2023/11/30 00:36:02;;;;;;;10.40;8.37;;;7.20;57.90;;;;;;5050969;28;20189;-50
2023/11/30 00:38:27;;;;;;;9.33;7.30;;;7.20;58.00;;;;;;5047134;28;20250;-48
2023/11/30 00:40:53;;;;;;;11.23;8.03;;;7.20;57.80;;;;;;5048503;28;20938;-48
2023/11/30 00:43:19;;;;;;;9.23;6.70;;;7.20;57.60;;;;;;5050314;28;20279;-53
2023/11/30 00:45:44;;;;;;;8.47;7.27;;;7.10;57.60;;;;;;5047386;28;20678;-50
2023/11/30 00:48:10;;;;;;;11.40;7.80;;;7.00;57.80;;;;;;5048472;28;20561;-50
2023/11/30 00:50:35;;;;;;;9.47;7.13;;;7.00;57.90;;;;;;5047517;28;20237;-49
2023/11/30 00:53:01;;;;;;;9.20;7.23;;;7.00;58.30;;;;;;5039368;28;20212;-48
2023/11/30 00:55:26;;;;;;;11.53;8.27;;;7.00;58.30;;;;;;5046945;28;20200;-51
2023/11/30 00:57:52;;;;;;;9.43;7.87;;;6.90;58.70;;;;;;5042701;28;20653;-50
2023/11/30 01:00:18;;;;;;;9.43;8.00;;;6.80;58.90;;;;;;5045682;28;20702;-50
2023/11/30 01:02:43;;;;;;;12.37;7.93;;;6.70;59.20;;;;;;5048267;28;20284;-49
2023/11/30 01:05:09;;;;;;;9.33;7.50;;;6.40;60.90;;;;;;5046288;28;20177;-47
2023/11/30 01:07:38;;;;;;;9.33;7.70;;;6.50;60.30;;;;;;5047233;28;20271;-52
2023/11/30 01:10:04;;;;;;;10.50;7.67;;;6.60;60.10;;;;;;5042850;28;20595;-48
2023/11/30 01:12:30;;;;;;;9.83;7.60;;;6.60;60.00;;;;;;5048218;28;21159;-48
2023/11/30 01:14:55;;;;;;;9.33;7.50;;;6.70;60.00;;;;;;5045665;28;20434;-51
2023/11/30 01:17:22;;;;;;;10.43;7.57;;;6.70;59.70;;;;;;5046733;28;20264;-51
2023/11/30 01:19:48;;;;;;;12.20;7.33;;;6.60;59.70;;;;;;5049539;28;20216;-47
2023/11/30 01:22:13;;;;;;;9.97;7.40;;;6.60;59.90;;;;;;5041078;28;20569;-49
2023/11/30 01:24:39;;;;;;;9.77;7.23;;;6.70;59.50;;;;;;5049517;28;20188;-51
2023/11/30 01:27:05;;;;;;;7.00;6.30;;;6.70;59.50;;;;;;5047832;28;20224;-48
2023/11/30 01:29:30;;;;;;;10.40;7.70;;;6.50;59.60;;;;;;5048900;28;20369;-49
2023/11/30 01:31:56;;;;;;;9.47;7.27;;;6.30;60.10;;;;;;5045284;28;20188;-49
2023/11/30 01:34:21;;;;;;;9.00;6.70;;;6.10;60.60;;;;;;5049862;28;20810;-50
2023/11/30 01:36:47;;;;;;;10.13;6.83;;;6.20;61.20;;;;;;5046603;28;20275;-50
2023/11/30 01:39:15;;;;;;;8.20;6.30;;;6.30;61.20;;;;;;5048280;28;21732;-47
2023/11/30 01:41:41;;;;;;;10.83;7.40;;;6.20;60.80;;;;;;5046793;28;20184;-50
2023/11/30 01:44:06;;;;;;;11.60;8.07;;;6.20;61.10;;;;;;5048129;28;20443;-48
2023/11/30 01:46:32;;;;;;;7.97;6.40;;;6.10;61.70;;;;;;5047358;28;20235;-47
2023/11/30 01:48:58;;;;;;;8.03;6.90;;;5.80;62.70;;;;;;5045321;28;20205;-49
2023/11/30 01:51:26;;;;;;;9.13;7.83;;;5.70;63.30;;;;;;5047343;28;20184;-53
2023/11/30 01:53:53;;;;;;;7.37;6.57;;;5.70;63.50;;;;;;5040467;28;20439;-49
2023/11/30 01:56:20;;;;;;;8.10;6.40;;;5.70;64.00;;;;;;5045019;28;20427;-51
2023/11/30 01:58:47;;;;;;;7.43;6.73;;;5.90;63.00;;;;;;5043723;28;20459;-49
2023/11/30 02:01:13;;;;;;;7.10;6.20;;;6.00;62.40;;;;;;5040451;28;21977;-47
2023/11/30 02:03:39;;;;;;;7.37;5.87;;;6.10;62.10;;;;;;5047307;28;20446;-49
2023/11/30 02:06:05;;;;;;;7.20;5.93;;;6.10;61.50;;;;;;5048043;28;20236;-49
2023/11/30 02:08:30;;;;;;;6.90;6.20;;;6.20;61.00;;;;;;5047893;28;20868;-49
2023/11/30 02:10:56;;;;;;;8.33;6.07;;;6.30;60.80;;;;;;5048026;28;20652;-49
2023/11/30 02:13:24;;;;;;;7.47;6.20;;;6.50;60.40;;;;;;5043669;28;20189;-48
2023/11/30 02:15:50;;;;;;;8.77;7.10;;;6.50;59.90;;;;;;5036283;28;20645;-52
2023/11/30 02:18:15;;;;;;;6.87;6.23;;;6.60;59.60;;;;;;5042349;28;20438;-49
2023/11/30 02:20:41;;;;;;;9.00;5.43;;;6.50;59.60;;;;;;5048877;28;20288;-47
2023/11/30 02:23:07;;;;;;;9.43;5.80;;;6.50;59.70;;;;;;5045721;28;20199;-49
2023/11/30 02:25:32;;;;;;;7.23;6.13;;;6.50;59.40;;;;;;5048736;28;20212;-48
2023/11/30 02:27:58;;;;;;;7.43;5.80;;;6.50;59.20;;;;;;5046257;28;20230;-51
2023/11/30 02:30:25;;;;;;;8.17;6.30;;;6.40;59.30;;;;;;5045578;28;20292;-50
2023/11/30 02:32:50;;;;;;;7.13;6.27;;;6.30;59.90;;;;;;5046213;28;20439;-48
2023/11/30 02:35:16;;;;;;;10.50;6.50;;;6.20;60.00;;;;;;5044262;28;20435;-50
2023/11/30 02:37:41;;;;;;;7.17;5.97;;;6.00;60.50;;;;;;5044234;28;20531;-48
2023/11/30 02:40:07;;;;;;;6.80;6.10;;;6.00;61.20;;;;;;5036761;28;20343;-46
2023/11/30 02:42:33;;;;;;;8.27;6.27;;;6.10;61.00;;;;;;5042892;28;20267;-46
2023/11/30 02:44:58;;;;;;;9.10;6.10;;;6.10;60.50;;;;;;5047497;28;20423;-49
2023/11/30 02:47:24;;;;;;;6.30;5.63;;;6.00;60.40;;;;;;5045614;28;20313;-49
2023/11/30 02:49:49;;;;;;;5.43;4.90;;;5.70;61.30;;;;;;5044232;28;20279;-50
2023/11/30 02:52:15;;;;;;;6.43;5.13;;;5.80;61.90;;;;;;5044731;28;20184;-47
2023/11/30 02:54:40;;;;;;;6.97;6.10;;;5.80;61.50;;;;;;5047028;28;20711;-49
2023/11/30 02:57:06;;;;;;;6.23;4.57;;;5.70;61.70;;;;;;5047262;28;20709;-49
2023/11/30 02:59:32;;;;;;;8.33;5.60;;;5.50;62.20;;;;;;5044841;28;20712;-49
2023/11/30 03:01:57;;;;;;;6.00;4.90;;;5.50;62.50;;;;;;5046814;28;20220;-50
2023/11/30 03:04:23;;;;;;;7.43;5.43;;;5.30;63.30;;;;;;5046312;28;20192;-46
2023/11/30 03:06:50;;;;;;;7.40;5.07;;;5.30;63.50;;;;;;5047081;28;20244;-47
2023/11/30 03:09:16;;;;;;;6.17;5.30;;;5.40;63.10;;;;;;5043888;28;20210;-46
2023/11/30 03:11:41;;;;;;;9.20;5.33;;;5.50;63.20;;;;;;5047157;28;20435;-46
2023/11/30 03:14:07;;;;;;;8.53;5.20;;;5.50;62.50;;;;;;5041497;28;20435;-47
2023/11/30 03:16:32;;;;;;;7.73;5.37;;;5.20;63.30;;;;;;5042666;28;20272;-48
2023/11/30 03:18:58;;;;;;;5.93;5.10;;;5.00;64.80;;;;;;5037307;28;20216;-48
2023/11/30 03:21:24;;;;;;;7.70;5.30;;;5.10;64.90;;;;;;5042498;28;20690;-47
2023/11/30 03:23:51;;;;;;;6.23;5.63;;;5.20;64.30;;;;;;5047484;28;20187;-47
2023/11/30 03:26:17;;;;;;;6.20;5.40;;;5.20;64.50;;;;;;5038344;28;20235;-47
2023/11/30 03:28:43;;;;;;;7.20;5.30;;;5.50;63.90;;;;;;5043797;28;20468;-49
2023/11/30 03:31:08;;;;;;;6.70;5.70;;;5.60;63.00;;;;;;5043680;28;20273;-47
2023/11/30 03:33:34;;;;;;;6.13;5.03;;;5.70;62.90;;;;;;5044169;28;20199;-47
2023/11/30 03:35:59;;;;;;;7.17;6.00;;;5.50;62.50;;;;;;5038780;28;20657;-47
2023/11/30 03:38:25;;;;;;;7.63;5.90;;;5.20;63.80;;;;;;5042602;28;20181;-46
2023/11/30 03:40:51;;;;;;;6.43;5.20;;;5.30;69.00;;;;;;5047474;28;20716;-47
2023/11/30 03:43:16;;;;;;;7.87;6.10;;;5.30;69.40;;;;;;5043273;28;20209;-49
2023/11/30 03:45:42;;;;;;;6.13;5.33;;;5.30;66.10;;;;;;5047272;28;20216;-48
2023/11/30 03:48:08;;;;;;;5.20;4.80;;;5.30;65.80;;;;;;5044775;28;20195;-48
2023/11/30 03:50:33;;;;;;;6.77;5.20;;;4.80;65.00;;;;;;5045382;28;20576;-47
2023/11/30 03:52:59;;;;;;;6.70;5.33;;;4.60;66.10;;;;;;5042986;28;20529;-48
2023/11/30 03:55:24;;;;;;;8.73;6.07;;;4.60;66.90;;;;;;5041704;28;20185;-48
2023/11/30 03:57:50;;;;;;;7.67;5.80;;;4.40;68.50;;;;;;5043253;28;20189;-47
2023/11/30 04:00:16;;;;;;;6.53;5.83;;;4.70;67.90;;;;;;5044990;28;20212;-48
2023/11/30 04:02:42;;;;;;;8.20;5.53;;;5.00;67.20;;;;;;5046264;28;20196;-48
2023/11/30 04:05:10;;;;;;;6.30;5.70;;;5.30;66.10;;;;;;5047273;28;20459;-47
2023/11/30 04:07:39;;;;;;;6.97;5.97;;;5.50;65.50;;;;;;5044758;28;20464;-49
2023/11/30 04:10:05;;;;;;;6.90;5.27;;;5.60;64.10;;;;;;5039212;28;20951;-48
2023/11/30 04:12:31;;;;;;;6.13;5.53;;;5.60;64.90;;;;;;5040629;28;20444;-49
2023/11/30 04:14:57;;;;;;;6.47;5.27;;;5.70;63.60;;;;;;5046254;28;20451;-47
2023/11/30 04:17:23;;;;;;;7.73;5.43;;;5.70;63.10;;;;;;5045972;28;20191;-48
2023/11/30 04:19:48;;;;;;;7.57;5.13;;;5.80;62.60;;;;;;5043117;28;20590;-47
2023/11/30 04:22:14;;;;;;;5.63;5.10;;;5.80;62.60;;;;;;5040249;28;20436;-48
2023/11/30 04:24:40;;;;;;;6.30;5.70;;;5.80;62.70;;;;;;5044210;28;20223;-47
2023/11/30 04:27:05;;;;;;;5.87;5.27;;;5.80;62.70;;;;;;5046206;28;20231;-49
2023/11/30 04:29:31;;;;;;;5.53;4.77;;;5.70;62.70;;;;;;5045072;28;20200;-49
2023/11/30 04:31:56;;;;;;;5.70;4.70;;;5.70;62.90;;;;;;5045821;28;20263;-49
2023/11/30 04:34:22;;;;;;;5.70;5.10;;;5.70;62.80;;;;;;5045691;28;20193;-47
2023/11/30 04:36:47;;;;;;;6.80;5.20;;;5.60;63.20;;;;;;5038776;28;20196;-47
2023/11/30 04:39:13;;;;;;;5.50;5.00;;;5.70;63.00;;;;;;5045265;28;20223;-47
2023/11/30 04:41:38;;;;;;;7.03;4.93;;;5.40;63.30;;;;;;5037481;28;20185;-47
2023/11/30 04:44:04;;;;;;;8.23;5.20;;;5.10;64.60;;;;;;5043908;28;20660;-48
2023/11/30 04:46:30;;;;;;;5.00;4.50;;;5.00;65.50;;;;;;5043451;28;20225;-49
2023/11/30 04:48:58;;;;;;;5.87;5.20;;;5.10;65.60;;;;;;5045054;28;20205;-49
2023/11/30 04:51:24;;;;;;;6.63;5.40;;;5.10;65.90;;;;;;5043235;28;20199;-47
2023/11/30 04:53:49;;;;;;;6.30;5.70;;;5.10;66.10;;;;;;5042826;28;20834;-47
2023/11/30 04:56:15;;;;;;;6.57;5.80;;;5.20;65.80;;;;;;5040421;28;20200;-46
2023/11/30 04:58:41;;;;;;;9.43;5.70;;;5.30;65.30;;;;;;5046945;28;20244;-47
2023/11/30 05:01:07;;;;;;;8.63;5.63;;;;;;;;;;5038373;28;20250;-48
2023/11/30 05:03:32;;;;;;;8.07;5.50;;;5.40;63.90;;;;;;5044366;28;20254;-46
2023/11/30 05:05:58;;;;;;;7.63;6.00;;;5.30;64.20;;;;;;5037332;28;20479;-49
2023/11/30 05:08:24;;;;;;;8.40;5.80;;;5.30;64.20;;;;;;5038851;28;20648;-47
2023/11/30 05:10:49;;;;;;;7.97;5.13;;;5.40;64.20;;;;;;5038196;28;20186;-48
2023/11/30 05:13:15;;;;;;;8.17;5.73;;;5.40;63.70;;;;;;5042378;28;20189;-48
2023/11/30 05:15:40;;;;;;;6.20;5.23;;;5.50;63.90;;;;;;5050029;28;20869;-48
2023/11/30 05:18:06;;;;;;;8.07;5.50;;;5.30;63.60;;;;;;5048681;28;20185;-47
2023/11/30 05:20:33;;;;;;;7.43;6.63;;;5.30;64.20;;;;;;5049719;28;20580;-49
2023/11/30 05:23:00;;;;;;;7.17;5.87;;;5.40;64.30;;;;;;5049711;28;20184;-48
2023/11/30 05:25:27;;;;;;;7.47;6.20;;;5.30;63.60;;;;;;5047387;28;20439;-49
2023/11/30 05:27:52;;;;;;;6.30;5.30;;;5.10;65.00;;;;;;5048944;28;20560;-50
2023/11/30 05:30:18;;;;;;;6.37;5.00;;;5.40;64.80;;;;;;5043614;28;20468;-51
2023/11/30 05:32:43;;;;;;;7.63;5.90;;;5.50;64.30;;;;;;5042500;28;20918;-49
2023/11/30 05:35:09;;;;;;;7.47;5.50;;;5.60;64.00;;;;;;5042479;28;20264;-47
2023/11/30 05:37:35;;;;;;;6.60;5.70;;;5.70;63.70;;;;;;5046517;28;20711;-51
2023/11/30 05:40:00;;;;;;;5.30;4.60;;;5.70;63.30;;;;;;5046818;28;20587;-49
2023/11/30 05:42:27;;;;;;;6.90;5.30;;;5.70;63.00;;;;;;5046049;28;20193;-51
2023/11/30 05:44:52;;;;;;;6.93;6.23;;;5.80;62.70;;;;;;5040902;28;20242;-51
2023/11/30 05:47:19;;;;;;;6.03;5.47;;;5.80;62.00;;;;;;5041362;28;20895;-50
2023/11/30 05:49:45;;;;;;;5.80;5.10;;;5.90;61.80;;;;;;5046574;28;20266;-51
2023/11/30 05:52:10;;;;;;;6.00;5.03;;;5.90;61.60;;;;;;5047948;28;20439;-48
2023/11/30 05:54:36;;;;;;;9.33;5.13;;;5.80;61.80;;;;;;5045902;28;20200;-49
2023/11/30 05:57:03;;;;;;;7.80;5.77;;;5.80;62.10;;;;;;5047953;28;20661;-48
2023/11/30 05:59:28;;;;;;;5.87;5.27;;;5.70;62.10;;;;;;5040160;28;20550;-49
2023/11/30 06:01:54;;;;;;;6.23;5.33;;;5.50;62.00;;;;;;5037793;28;20199;-48
2023/11/30 06:04:19;;;;;;;5.57;4.93;;;5.50;62.40;;;;;;5044004;28;20276;-50
2023/11/30 06:06:45;;;;;;;6.90;5.30;;;5.50;62.60;;;;;;5048065;28;20303;-49
2023/11/30 06:09:10;;;;;;;6.83;5.10;;;5.50;62.70;;;;;;5047278;28;20680;-48
2023/11/30 06:11:36;;;;;;;7.63;5.13;;;5.50;62.00;;;;;;5043096;28;20203;-50
2023/11/30 06:14:01;;;;;;;6.17;4.90;;;5.30;62.80;;;;;;5044670;28;20196;-50
2023/11/30 06:16:27;;;;;;;5.97;4.60;;;5.40;63.50;;;;;;5046760;28;20188;-49
2023/11/30 06:18:53;;;;;;;5.70;4.03;;;5.40;63.30;;;;;;5041186;28;20212;-49
2023/11/30 06:21:18;;;;;;;7.03;4.57;;;5.30;63.10;;;;;;5038972;28;20664;-48
2023/11/30 06:23:44;;;;;;;8.67;5.80;;;5.20;63.60;;;;;;5041977;28;20632;-52
2023/11/30 06:26:10;;;;;;;16.67;4.57;;;5.50;65.90;;;;;;5037122;28;20216;-48
2023/11/30 06:28:36;;;;;;;7.10;5.10;;;5.80;66.30;;;;;;5042637;28;20227;-49
2023/11/30 06:31:02;;;;;;;10.27;5.07;;;6.20;65.40;;;;;;5039207;28;20435;-51
2023/11/30 06:33:28;;;;;;;8.33;4.93;;;6.50;64.50;;;;;;5043891;28;20446;-51
2023/11/30 06:35:53;;;;;;;6.30;4.03;;;6.70;64.30;;;;;;5042132;28;20196;-50
2023/11/30 06:38:19;;;;;;;6.90;5.40;;;6.90;63.20;;;;;;5037618;28;20931;-49
2023/11/30 06:40:44;;;;;;;5.87;4.30;;;7.10;62.20;;;;;;5039732;28;20212;-48
2023/11/30 06:43:10;;;;;;;6.23;5.27;;;7.10;60.80;;;;;;5046628;28;20180;-47
2023/11/30 06:45:36;;;;;;;7.30;5.27;;;7.10;60.50;;;;;;5048222;28;20720;-49
2023/11/30 06:48:01;;;;;;;7.80;5.30;;;7.10;59.70;;;;;;5043024;28;20192;-49
2023/11/30 06:50:27;;;;;;;5.90;5.30;;;7.20;59.50;;;;;;5045078;28;20255;-50
2023/11/30 06:52:52;;;;;;;7.40;5.50;;;7.20;59.20;;;;;;5044821;28;20181;-51
2023/11/30 06:55:18;;;;;;;6.00;5.00;;;7.10;59.30;;;;;;5046215;28;20193;-47
2023/11/30 06:57:43;;;;;;;5.67;5.07;;;7.20;59.00;;;;;;5047943;28;20287;-51
2023/11/30 07:00:10;;;;;;;5.10;4.30;;;7.30;58.60;;;;;;5048678;28;20228;-49
2023/11/30 07:02:36;;;;;;;7.27;5.00;;;7.20;58.60;;;;;;5040909;28;20841;-48
2023/11/30 07:05:05;;;;;;;5.17;4.67;;;7.20;58.50;;;;;;5040886;28;20450;-48
2023/11/30 07:07:34;;;;;;;4.67;3.80;;;7.10;58.40;;;;;;5045012;28;20228;-48
2023/11/30 07:10:00;;;;;;;5.70;4.80;;;7.00;58.70;;;;;;5044209;28;21017;-50
2023/11/30 07:12:25;;;;;;;5.93;4.80;;;7.00;58.90;;;;;;5046953;28;20474;-48
2023/11/30 07:14:51;;;;;;;6.03;4.90;;;7.00;58.80;;;;;;5046396;28;20450;-47
2023/11/30 07:17:17;;;;;;;6.90;4.80;;;7.10;58.90;;;;;;5046485;28;20195;-47
2023/11/30 07:19:42;;;;;;;4.70;4.20;;;7.10;58.80;;;;;;5046401;28;20204;-49
2023/11/30 07:22:08;;;;;;;5.27;4.30;;;7.20;58.60;;;;;;5036143;28;20219;-49
2023/11/30 07:24:34;;;;;;;6.87;4.97;;;7.10;58.90;;;;;;5041427;28;20176;-48
2023/11/30 07:27:00;;;;;;;6.13;4.77;;;7.10;58.90;;;;;;5042655;28;20921;-50
2023/11/30 07:29:25;;;;;;;5.50;4.60;;;7.10;58.60;;;;;;5039191;28;20220;-49
2023/11/30 07:31:51;;;;;;;6.03;4.90;;;7.20;58.60;;;;;;5041959;28;20420;-48
2023/11/30 07:34:17;;;;;;;5.60;4.40;;;6.90;58.00;;;;;;5041382;28;20201;-47
2023/11/30 07:36:43;;;;;;;5.33;4.20;;;6.70;58.50;;;;;;5034837;28;20442;-49
2023/11/30 07:39:09;;;;;;;5.83;4.30;;;6.70;58.60;;;;;;5047650;28;20235;-47
2023/11/30 07:41:35;;;;;;;4.90;3.67;;;6.70;58.70;;;;;;5041456;28;20576;-49
2023/11/30 07:44:02;;;;;;;5.33;4.17;;;6.90;59.20;;;;;;5047189;28;20568;-49
2023/11/30 07:46:27;;;;;;;6.07;4.73;;;7.10;58.40;;;;;;5043253;28;20481;-46
2023/11/30 07:48:54;;;;;;;5.53;4.10;;;7.20;58.10;;;;;;5043406;28;20463;-49
2023/11/30 07:51:21;;;;;;;6.50;4.93;;;7.30;58.00;;;;;;5044468;28;20199;-51
2023/11/30 07:53:47;;;;;;;5.80;5.20;;;7.40;57.90;;;;;;5045972;28;20461;-47
2023/11/30 07:56:13;;;;;;;6.13;4.40;;;7.60;57.60;;;;;;5045311;28;20451;-48
2023/11/30 07:58:40;;;;;;;4.60;4.10;;;7.60;57.30;;;;;;5045223;28;20213;-49
2023/11/30 08:01:06;;;;;;;6.40;5.70;;;7.70;57.10;;;;;;5047526;28;20191;-47
2023/11/30 08:03:32;;;;;;;5.17;4.67;;;7.70;56.70;;;;;;5046415;28;21200;-48
2023/11/30 08:05:58;;;;;;;5.23;4.73;;;7.70;57.00;;;;;;5047761;28;20240;-47
2023/11/30 08:08:23;;;;;;;5.47;4.70;;;7.70;57.10;;;;;;5046498;28;20548;-49
2023/11/30 08:10:49;;;;;;;6.53;4.50;;;7.60;57.20;;;;;;5046747;28;20439;-50
2023/11/30 08:13:15;;;;;;;5.07;4.53;;;7.60;57.40;;;;;;5045740;28;20184;-50
2023/11/30 08:15:41;;;;;;;4.90;4.30;;;7.60;57.00;;;;;;5043057;28;20195;-47
2023/11/30 08:18:07;;;;;;;5.73;4.33;;;7.70;57.10;;;;;;5043028;28;20443;-48
2023/11/30 08:20:34;;;;;;;4.73;4.20;;;7.70;57.00;;;;;;5044634;28;20203;-50
2023/11/30 08:23:00;;;;;;;5.90;4.57;;;7.70;56.70;;;;;;5042198;28;20446;-49
2023/11/30 08:25:26;;;;;;;5.63;5.00;;;7.70;57.10;;;;;;5035701;28;20438;-50
2023/11/30 08:27:51;;;;;;;5.57;5.07;;;7.80;56.60;;;;;;5036758;28;20195;-50
2023/11/30 08:30:17;;;;;;;5.67;5.17;;;7.70;56.80;;;;;;5042203;28;20219;-49
2023/11/30 08:32:43;;;;;;;8.37;5.70;;;7.60;56.80;;;;;;5040378;28;20205;-49
2023/11/30 08:35:09;;;;;;;6.20;5.27;;;7.30;57.50;;;;;;5039271;28;20196;-48
2023/11/30 08:37:34;;;;;;;5.90;5.37;;;7.10;57.90;;;;;;5046178;28;20430;-50
2023/11/30 08:40:00;;;;;;;7.77;5.87;;;7.00;58.40;;;;;;5041639;28;20298;-51
2023/11/30 08:42:26;;;;;;;6.27;4.93;;;7.00;58.50;;;;;;5047561;28;20188;-51
2023/11/30 08:44:51;;;;;;;5.47;4.97;;;7.00;58.50;;;;;;5049387;28;20606;-48
2023/11/30 08:47:17;;;;;;;5.87;5.17;;;6.60;58.80;;;;;;5049255;28;20485;-50
2023/11/30 08:49:42;;;;;;;7.70;5.57;;;6.50;59.50;;;;;;5047498;28;20699;-51
2023/11/30 08:52:08;;;;;;;4.40;3.93;;;6.50;59.80;;;;;;5043576;28;20201;-50
2023/11/30 08:54:34;;;;;;;8.90;6.17;;;6.60;65.60;;;;;;5047749;28;20199;-50
2023/11/30 08:56:59;;;;;;;8.70;6.17;;;7.10;63.90;;;;;;5047511;28;20279;-50
2023/11/30 08:59:25;;;;;;;7.50;5.70;;;7.20;59.80;;;;;;5045920;28;20220;-50
2023/11/30 09:01:50;;;;;;;8.10;6.47;;;7.00;59.00;;;;;;5044696;28;20219;-50
2023/11/30 09:04:16;;;;;;;6.30;5.70;;;7.00;59.00;;;;;;5048686;28;20189;-50
2023/11/30 09:06:42;;;;;;;6.77;6.07;;;6.80;59.50;;;;;;5046732;28;20228;-47
2023/11/30 09:09:08;;;;;;;8.90;6.53;;;6.60;59.60;;;;;;5047263;28;20455;-49
2023/11/30 09:11:34;;;;;;;8.60;6.20;;;6.60;60.10;;;;;;5047338;28;20211;-52
2023/11/30 09:14:00;;;;;;;8.23;5.97;;;6.70;60.00;;;;;;5047313;28;20176;-47
2023/11/30 09:16:26;;;;;;;10.87;7.20;;;6.50;60.10;;;;;;5048254;28;20450;-50
2023/11/30 09:18:54;;;;;;;9.57;6.00;;;6.40;60.40;;;;;;5050034;28;20362;-52
2023/11/30 09:21:20;;;;;;;8.33;6.60;;;6.50;61.20;;;;;;5043682;28;21136;-49
2023/11/30 09:23:46;;;;;;;8.20;6.27;;;6.60;60.90;;;;;;5046829;28;20852;-49
2023/11/30 09:26:12;;;;;;;8.03;6.77;;;6.70;60.50;;;;;;5041027;28;20474;-48
2023/11/30 09:28:37;;;;;;;7.17;6.47;;;6.90;59.90;;;;;;5048072;28;20778;-49
2023/11/30 09:31:04;;;;;;;10.07;7.10;;;7.00;59.80;;;;;;5043171;28;20181;-47
2023/11/30 09:33:30;;;;;;;9.77;7.40;;;6.90;59.40;;;;;;5042044;28;20192;-50
2023/11/30 09:36:01;;;;;;;9.97;7.40;;;6.80;59.80;;;;;;5046702;28;20436;-49
2023/11/30 09:38:27;;;;;;;8.70;7.30;;;7.00;59.80;;;;;;5049598;28;20193;-52
2023/11/30 09:40:53;;;;;;;11.80;7.70;;;7.10;59.50;;;;;;5047801;28;20439;-54
2023/11/30 09:43:19;;;;;;;9.97;8.57;;;7.30;58.90;;;;;;5047897;28;20184;-49
2023/11/30 09:45:47;;;;;;;8.80;7.10;;;7.40;58.60;;;;;;5049413;28;20211;-53
2023/11/30 09:48:13;;;;;;;11.57;8.97;;;7.30;58.60;;;;;;5043205;28;20890;-53
2023/11/30 09:50:39;;;;;;;10.50;8.20;;;7.40;58.70;;;;;;5046101;28;20524;-53
2023/11/30 09:53:05;;;;;;;9.10;8.20;;;7.30;58.60;;;;;;5045174;28;20981;-53
2023/11/30 09:55:31;;;;;;;12.80;11.03;;;7.30;58.90;;;;;;5045584;28;20908;-54
2023/11/30 09:57:58;;;;;;;11.20;9.07;;;7.40;58.60;;;;;;5046263;28;20800;-53
2023/11/30 10:00:24;;;;;;;13.00;8.70;;;7.30;58.50;;;;;;5045457;28;20497;-51
2023/11/30 10:02:59;;;;;;;9.10;8.20;;;7.40;58.50;;;;;;5043656;28;20443;-52
2023/11/30 10:05:28;;;;;;;11.97;8.20;;;7.50;58.40;;;;;;5047169;28;20279;-53
2023/11/30 10:07:53;;;;;;;10.30;8.17;;;7.50;58.60;;;;;;5047169;28;20484;-54
2023/11/30 10:10:19;;;;;;;8.77;7.77;;;7.60;58.30;;;;;;5049792;28;21027;-55
2023/11/30 10:12:45;;;;;;;11.40;8.97;;;7.70;58.20;;;;;;5046885;28;20625;-52
2023/11/30 10:15:10;;;;;;;11.10;8.63;;;7.80;58.00;;;;;;5044409;28;20627;-56
2023/11/30 10:17:39;;;;;;;10.17;8.70;;;7.90;57.90;;;;;;5043588;28;20710;-50
2023/11/30 10:20:11;;;;;;;12.23;9.53;;;7.90;58.00;;;;;;5048173;28;20612;-53
2023/11/30 10:22:40;;;;;;;10.20;8.50;;;7.80;58.50;;;;;;5047323;28;20473;-56
2023/11/30 10:25:09;;;;;;;11.30;8.20;;;7.80;58.40;;;;;;5049000;28;20439;-54
2023/11/30 10:27:36;;;;;;;11.30;8.30;;;7.80;58.30;;;;;;5047194;28;20486;-52
2023/11/30 10:30:04;;;;;;;13.07;8.73;;;7.80;58.60;;;;;;5046187;28;20486;-51
2023/11/30 10:32:32;;;;;;;9.60;7.73;;;7.70;58.70;;;;;;5041538;28;20471;-52
2023/11/30 10:35:03;;;;;;;11.00;8.20;;;7.80;59.60;;;;;;5049204;28;20458;-51
2023/11/30 10:37:32;;;;;;;9.80;8.00;;;7.80;58.90;;;;;;5047948;28;20419;-50
2023/11/30 10:40:08;;;;;;;9.97;8.40;;;7.70;58.90;;;;;;5047439;28;20902;-52
2023/11/30 10:42:35;;;;;;;12.53;8.40;;;7.50;59.30;;;;;;5040016;28;20431;-49
2023/11/30 10:45:03;;;;;;;10.73;8.40;;;7.50;59.50;;;;;;5049128;28;20477;-49
2023/11/30 10:47:32;;;;;;;13.67;9.30;;;7.70;59.70;;;;;;5043202;28;20680;-50
2023/11/30 10:49:59;;;;;;;9.80;8.33;;;7.80;59.60;;;;;;5035156;28;20541;-55
2023/11/30 10:52:30;;;;;;;9.73;7.80;;;7.70;59.30;;;;;;5039267;28;20447;-55
2023/11/30 10:55:01;;;;;;;9.60;8.03;;;7.70;59.00;;;;;;5041692;28;20465;-53
2023/11/30 10:57:26;;;;;;;9.80;8.00;;;7.80;58.90;;;;;;5039330;28;20947;-50
2023/11/30 10:59:58;;;;;;;11.50;7.23;;;7.60;59.10;;;;;;5043663;28;20513;-53
2023/11/30 11:02:34;;;;;;;11.07;8.20;;;7.30;59.80;;;;;;5036537;28;20239;-50
2023/11/30 11:05:00;;;;;;;8.87;7.17;;;7.40;60.30;;;;;;5041861;28;20438;-54
2023/11/30 11:07:26;;;;;;;9.30;7.97;;;7.50;60.00;;;;;;5044321;28;21012;-53
2023/11/30 11:09:54;;;;;;;10.70;8.90;;;7.80;59.90;;;;;;5043045;28;20295;-57
2023/11/30 11:12:24;;;;;;;8.40;6.87;;;7.90;59.50;;;;;;5046190;28;20509;-51
2023/11/30 11:15:03;;;;;;;10.77;8.90;;;8.00;59.00;;;;;;5043579;28;20845;-51
2023/11/30 11:17:29;;;;;;;10.57;7.53;;;7.90;58.30;;;;;;5045649;28;20518;-50
2023/11/30 11:19:58;;;;;;;10.33;7.70;;;7.90;59.10;;;;;;5046231;28;20581;-51
2023/11/30 11:22:24;;;;;;;12.73;8.70;;;8.00;58.90;;;;;;5044863;28;20234;-52
2023/11/30 11:24:59;;;;;;;8.80;7.90;;;8.10;58.80;;;;;;5042327;28;20455;-53
2023/11/30 11:27:34;;;;;;;9.37;7.20;;;8.20;58.70;;;;;;5043457;28;20561;-54
2023/11/30 11:30:07;;;;;;;8.57;6.80;;;8.30;58.50;;;;;;5046751;28;20939;-53
2023/11/30 11:32:34;;;;;;;11.50;7.57;;;8.30;58.10;;;;;;5044971;28;20946;-52
2023/11/30 11:35:05;;;;;;;9.67;6.47;;;8.50;58.20;;;;;;5047849;28;20421;-54
2023/11/30 11:37:30;;;;;;;12.13;7.93;;;8.60;57.90;;;;;;5043982;28;20694;-51
2023/11/30 11:39:56;;;;;;;9.17;7.33;;;8.80;57.50;;;;;;5041152;28;20461;-52
2023/11/30 11:42:22;;;;;;;7.50;6.80;;;8.80;57.20;;;;;;5040016;28;20195;-54
2023/11/30 11:44:50;;;;;;;7.17;6.47;;;8.60;57.40;;;;;;5045878;28;20667;-53
2023/11/30 11:47:16;;;;;;;9.40;7.93;;;8.60;57.50;;;;;;5038140;28;20985;-50
2023/11/30 11:49:42;;;;;;;8.63;7.73;;;8.70;57.90;;;;;;5044137;28;20462;-55
2023/11/30 11:52:08;;;;;;;10.93;7.40;;;8.90;57.70;;;;;;5042797;28;20627;-51
2023/11/30 11:54:35;;;;;;;10.40;7.87;;;8.90;57.30;;;;;;5041870;28;20463;-55
2023/11/30 11:57:01;;;;;;;9.50;8.47;;;9.00;56.90;;;;;;5043639;28;20514;-54
2023/11/30 11:59:28;;;;;;;8.10;7.30;;;9.00;56.90;;;;;;5046008;28;20466;-52
2023/11/30 12:01:56;;;;;;;9.17;7.33;;;9.00;56.90;;;;;;5040433;28;20423;-53
2023/11/30 12:04:33;;;;;;;7.83;7.03;;;9.10;56.80;;;;;;5044123;28;20960;-49
2023/11/30 12:07:10;;;;;;;8.53;7.37;;;8.90;57.10;;;;;;5043263;28;20536;-51
2023/11/30 12:09:37;;;;;;;8.17;7.20;;;8.90;57.40;;;;;;5045826;28;20473;-49
2023/11/30 12:12:06;;;;;;;8.20;7.40;;;8.90;57.70;;;;;;5043717;28;20492;-53
2023/11/30 12:14:31;;;;;;;8.10;6.77;;;8.80;57.70;;;;;;5046990;28;20521;-50
2023/11/30 12:16:57;;;;;;;9.03;7.27;;;8.60;58.10;;;;;;5051146;28;20435;-50
2023/11/30 12:19:23;;;;;;;8.17;7.37;;;8.70;58.50;;;;;;5050871;28;20285;-53
2023/11/30 12:21:48;;;;;;;9.93;7.60;;;8.80;57.90;;;;;;5049419;28;20431;-48
2023/11/30 12:24:14;;;;;;;9.07;7.37;;;8.80;57.60;;;;;;5051090;28;20184;-51
2023/11/30 12:26:40;;;;;;;10.57;7.20;;;8.80;57.60;;;;;;5049497;28;20227;-52
2023/11/30 12:29:07;;;;;;;7.73;6.13;;;8.90;57.90;;;;;;5049713;28;20462;-51
2023/11/30 12:31:33;;;;;;;7.67;6.93;;;9.00;57.90;;;;;;5049330;28;21064;-52
2023/11/30 12:33:59;;;;;;;11.63;7.80;;;9.10;57.60;;;;;;5045237;28;20537;-56
2023/11/30 12:36:24;;;;;;;9.57;7.17;;;9.10;57.40;;;;;;5047924;28;20196;-54
2023/11/30 12:38:50;;;;;;;7.13;6.43;;;9.10;57.30;;;;;;5049005;28;20354;-54
2023/11/30 12:41:16;;;;;;;8.40;7.60;;;9.20;57.40;;;;;;5046350;28;20195;-51
2023/11/30 12:43:42;;;;;;;9.07;7.87;;;9.10;57.50;;;;;;5049406;28;20423;-52
2023/11/30 12:46:09;;;;;;;10.33;8.13;;;8.90;58.00;;;;;;5048639;28;20251;-54
2023/11/30 12:48:35;;;;;;;11.00;9.10;;;9.00;58.00;;;;;;5044957;28;20912;-55
2023/11/30 12:51:01;;;;;;;11.63;8.27;;;9.10;58.00;;;;;;5038808;28;21186;-49